createdAt,value
2023-02-09T00:01:19.914Z,34.04
2023-02-09T00:03:48.232Z,34.31
2023-02-09T00:06:18.843Z,34.46
2023-02-09T00:08:51.270Z,34.71
2023-02-09T00:11:44.521Z,34.64
2023-02-09T00:14:14.378Z,34.93
2023-02-09T00:16:42.998Z,35.01
2023-02-09T00:19:11.805Z,35.30
2023-02-09T00:21:40.204Z,35.09
2023-02-09T00:24:10.694Z,35.08
2023-02-09T00:26:39.322Z,35.45
2023-02-09T00:29:07.451Z,35.65
2023-02-09T00:31:37.298Z,35.32
2023-02-09T00:34:05.867Z,35.60
2023-02-09T00:36:34.576Z,35.50
2023-02-09T00:39:02.847Z,35.61
2023-02-09T00:41:48.754Z,35.81
2023-02-09T00:44:16.898Z,35.50
2023-02-09T00:46:46.469Z,35.91
2023-02-09T00:49:14.609Z,36.40
2023-02-09T00:51:42.690Z,36.47
2023-02-09T00:54:10.723Z,36.35
2023-02-09T00:56:39.446Z,36.63
2023-02-09T00:59:07.602Z,36.67
2023-02-09T01:01:35.882Z,37.00
2023-02-09T01:04:05.777Z,37.91
2023-02-09T01:06:34.442Z,37.78
2023-02-09T01:09:02.796Z,38.24
2023-02-09T01:11:30.881Z,38.25
2023-02-09T01:14:00.833Z,38.68
2023-02-09T01:16:31.609Z,38.78
2023-02-09T01:19:01.991Z,39.04
2023-02-09T01:21:32.625Z,39.12
2023-02-09T01:24:00.946Z,39.23
2023-02-09T01:26:29.115Z,39.67
2023-02-09T01:28:57.080Z,39.83
2023-02-09T01:31:27.460Z,39.71
2023-02-09T01:33:57.655Z,40.01
2023-02-09T01:36:29.512Z,39.90
2023-02-09T01:39:01.191Z,40.04
2023-02-09T01:41:29.556Z,40.37
2023-02-09T01:44:00.387Z,40.85
2023-02-09T01:46:29.940Z,41.58
2023-02-09T01:49:06.367Z,42.23
2023-02-09T01:51:37.878Z,41.89
2023-02-09T01:54:12.439Z,42.08
2023-02-09T01:56:43.985Z,41.81
2023-02-09T01:59:15.905Z,41.66
2023-02-09T02:01:45.030Z,42.30
2023-02-09T02:04:14.222Z,42.50
2023-02-09T02:06:42.421Z,42.59
2023-02-09T02:09:14.276Z,42.19
2023-02-09T02:11:46.840Z,42.34
2023-02-09T02:14:29.652Z,42.32
2023-02-09T02:17:08.127Z,42.05
2023-02-09T02:20:26.746Z,42.81
2023-02-09T02:23:04.908Z,42.41
2023-02-09T02:26:09.396Z,42.47
2023-02-09T02:28:46.040Z,42.41
2023-02-09T02:31:49.442Z,42.63
2023-02-09T02:34:26.663Z,42.69
2023-02-09T02:37:02.941Z,43.17
2023-02-09T02:39:38.209Z,43.75
2023-02-09T02:42:29.791Z,43.61
2023-02-09T02:45:05.234Z,43.41
2023-02-09T02:47:37.909Z,43.72
2023-02-09T02:50:13.332Z,43.49
2023-02-09T02:52:47.324Z,43.55
2023-02-09T02:55:18.750Z,43.81
2023-02-09T02:57:52.562Z,44.17
2023-02-09T03:00:24.813Z,44.40
2023-02-09T03:02:56.560Z,44.79
2023-02-09T03:05:27.605Z,44.68
2023-02-09T03:07:55.735Z,44.63
2023-02-09T03:10:28.313Z,45.23
2023-02-09T03:13:09.721Z,45.65
2023-02-09T03:15:50.097Z,45.26
2023-02-09T03:18:27.295Z,45.80
2023-02-09T03:21:00.109Z,45.92
2023-02-09T03:23:33.988Z,46.29
2023-02-09T03:26:08.699Z,46.25
2023-02-09T03:28:41.207Z,45.93
2023-02-09T03:31:10.317Z,46.06
2023-02-09T03:33:40.510Z,46.22
2023-02-09T03:36:15.339Z,46.99
2023-02-09T03:38:43.783Z,46.67
2023-02-09T03:41:11.898Z,46.35
2023-02-09T03:43:57.297Z,46.51
2023-02-09T03:46:25.596Z,46.20
2023-02-09T03:48:53.924Z,45.91
2023-02-09T03:51:23.665Z,46.47
2023-02-09T03:53:51.632Z,46.38
2023-02-09T03:56:19.574Z,46.98
2023-02-09T03:58:47.569Z,47.17
2023-02-09T04:01:15.719Z,47.22
2023-02-09T04:03:43.992Z,47.10
2023-02-09T04:06:11.999Z,47.18
2023-02-09T04:08:43.125Z,46.85
2023-02-09T04:11:11.335Z,46.92
2023-02-09T04:13:39.333Z,46.12
2023-02-09T04:16:07.786Z,46.15
2023-02-09T04:18:35.720Z,45.61
2023-02-09T04:21:03.577Z,45.65
2023-02-09T04:23:31.465Z,45.83
2023-02-09T04:26:00.885Z,45.99
2023-02-09T04:28:28.939Z,46.10
2023-02-09T04:30:57.951Z,46.58
2023-02-09T04:33:26.514Z,46.17
2023-02-09T04:35:54.666Z,45.91
2023-02-09T04:38:22.936Z,46.03
2023-02-09T04:40:53.296Z,45.55
2023-02-09T04:43:22.894Z,46.25
2023-02-09T04:45:51.324Z,45.99
2023-02-09T04:48:21.498Z,45.83
2023-02-09T04:50:50.094Z,46.16
2023-02-09T04:53:18.596Z,46.05
2023-02-09T04:55:48.230Z,46.23
2023-02-09T04:58:36.370Z,45.82
2023-02-09T05:01:06.610Z,45.60
2023-02-09T05:03:35.019Z,46.02
2023-02-09T05:06:05.129Z,45.57
2023-02-09T05:08:33.873Z,45.25
2023-02-09T05:11:01.971Z,44.96
2023-02-09T05:13:30.361Z,45.83
2023-02-09T05:15:58.339Z,45.54
2023-02-09T05:18:27.779Z,45.20
2023-02-09T05:20:55.761Z,45.48
2023-02-09T05:23:23.706Z,45.47
2023-02-09T05:25:52.339Z,45.33
2023-02-09T05:28:20.332Z,45.39
2023-02-09T05:30:49.082Z,44.78
2023-02-09T05:33:17.348Z,44.78
2023-02-09T05:35:46.961Z,45.78
2023-02-09T05:38:15.031Z,45.66
2023-02-09T05:40:45.131Z,45.21
2023-02-09T05:43:13.474Z,44.96
2023-02-09T05:45:41.516Z,45.06
2023-02-09T05:48:09.711Z,44.80
2023-02-09T05:50:37.765Z,44.95
2023-02-09T05:53:09.704Z,45.62
2023-02-09T05:55:37.937Z,45.25
2023-02-09T05:58:06.093Z,45.99
2023-02-09T06:00:34.174Z,45.11
2023-02-09T06:03:02.878Z,45.01
2023-02-09T06:05:30.900Z,44.75
2023-02-09T06:07:59.125Z,45.05
2023-02-09T06:10:28.699Z,45.34
2023-02-09T06:12:57.180Z,45.73
2023-02-09T06:15:26.583Z,46.04
2023-02-09T06:17:54.881Z,46.50
2023-02-09T06:20:23.825Z,46.02
2023-02-09T06:22:52.541Z,46.08
2023-02-09T06:25:21.332Z,46.48
2023-02-09T06:27:51.379Z,46.13
2023-02-09T06:30:20.238Z,46.23
2023-02-09T06:32:49.234Z,46.57
2023-02-09T06:35:18.024Z,46.47
2023-02-09T06:37:46.066Z,46.83
2023-02-09T06:40:14.582Z,46.50
2023-02-09T06:42:45.428Z,46.90
2023-02-09T06:45:17.527Z,46.92
2023-02-09T06:47:47.101Z,47.11
2023-02-09T06:50:17.511Z,47.12
2023-02-09T06:52:46.457Z,47.17
2023-02-09T06:55:15.603Z,47.24
2023-02-09T06:57:43.576Z,47.23
2023-02-09T07:00:15.889Z,47.31
2023-02-09T07:02:45.039Z,46.73
2023-02-09T07:05:14.007Z,47.11
2023-02-09T07:07:42.950Z,47.61
2023-02-09T07:10:13.361Z,47.54
2023-02-09T07:12:43.363Z,47.78
2023-02-09T07:15:13.919Z,48.38
2023-02-09T07:17:43.502Z,48.31
2023-02-09T07:20:13.387Z,48.34
2023-02-09T07:22:42.124Z,48.53
2023-02-09T07:25:11.062Z,48.70
2023-02-09T07:27:39.174Z,48.07
2023-02-09T07:30:08.377Z,48.44
2023-02-09T07:32:38.402Z,48.50
2023-02-09T07:35:08.964Z,48.52
2023-02-09T07:37:37.285Z,48.90
2023-02-09T07:40:06.017Z,48.94
2023-02-09T07:42:34.519Z,48.76
2023-02-09T07:45:04.473Z,48.72
2023-02-09T07:47:32.742Z,48.49
2023-02-09T07:50:00.813Z,48.43
2023-02-09T07:52:30.629Z,48.50
2023-02-09T07:54:58.837Z,48.09
2023-02-09T07:57:28.433Z,48.11
2023-02-09T07:59:57.004Z,48.37
2023-02-09T08:02:29.483Z,48.61
2023-02-09T08:05:00.480Z,48.61
2023-02-09T08:07:30.288Z,48.02
2023-02-09T08:09:58.747Z,48.63
2023-02-09T08:12:44.508Z,48.73
2023-02-09T08:15:15.723Z,48.81
2023-02-09T08:17:44.476Z,48.54
2023-02-09T08:20:17.125Z,48.73
2023-02-09T08:22:50.028Z,49.01
2023-02-09T08:25:21.866Z,49.23
2023-02-09T08:27:52.137Z,49.21
2023-02-09T08:30:21.392Z,49.12
2023-02-09T08:32:49.413Z,49.15
2023-02-09T08:35:18.125Z,49.07
2023-02-09T08:37:47.981Z,49.05
2023-02-09T08:40:16.874Z,48.80
2023-02-09T08:42:45.338Z,49.14
2023-02-09T08:45:13.903Z,49.05
2023-02-09T08:47:42.064Z,49.38
2023-02-09T08:50:11.618Z,49.04
2023-02-09T08:52:40.057Z,49.32
2023-02-09T08:55:11.098Z,49.71
2023-02-09T08:57:44.510Z,49.24
2023-02-09T09:00:15.250Z,49.53
2023-02-09T09:02:43.313Z,49.35
2023-02-09T09:05:12.037Z,49.36
2023-02-09T09:07:40.345Z,49.29
2023-02-09T09:10:11.217Z,49.78
2023-02-09T09:12:39.674Z,49.62
2023-02-09T09:15:09.187Z,49.31
2023-02-09T09:17:37.446Z,49.40
2023-02-09T09:20:07.419Z,49.49
2023-02-09T09:22:35.575Z,49.19
2023-02-09T09:25:03.837Z,50.21
2023-02-09T09:27:35.016Z,50.29
2023-02-09T09:30:04.000Z,50.38
2023-02-09T09:32:33.405Z,50.53
2023-02-09T09:35:04.488Z,50.46
2023-02-09T09:37:33.926Z,50.27
2023-02-09T09:40:02.060Z,50.26
2023-02-09T09:42:36.977Z,50.47
2023-02-09T09:45:07.113Z,51.09
2023-02-09T09:47:39.176Z,50.88
2023-02-09T09:50:14.377Z,50.61
2023-02-09T09:52:47.630Z,50.54
2023-02-09T09:55:23.564Z,50.89
2023-02-09T09:57:55.125Z,50.57
2023-02-09T10:00:26.069Z,50.81
2023-02-09T10:02:55.089Z,51.37
2023-02-09T10:05:26.475Z,52.21
2023-02-09T10:08:01.098Z,52.58
2023-02-09T10:10:39.543Z,52.92
2023-02-09T10:13:20.431Z,52.81
2023-02-09T10:15:50.246Z,52.53
2023-02-09T10:18:25.181Z,52.12
2023-02-09T10:20:55.591Z,52.05
2023-02-09T10:23:26.713Z,52.82
2023-02-09T10:26:06.250Z,52.39
2023-02-09T10:28:40.970Z,52.86
2023-02-09T10:31:13.585Z,52.75
2023-02-09T10:33:45.282Z,52.98
2023-02-09T10:36:29.004Z,54.01
2023-02-09T10:39:13.737Z,53.88
2023-02-09T10:41:43.886Z,54.06
2023-02-09T10:44:19.477Z,54.62
2023-02-09T10:46:48.217Z,54.73
2023-02-09T10:49:31.436Z,54.91
2023-02-09T10:52:17.556Z,54.37
2023-02-09T10:54:49.574Z,54.97
2023-02-09T10:57:22.673Z,54.94
2023-02-09T10:59:58.648Z,54.83
2023-02-09T11:02:35.684Z,54.72
2023-02-09T11:05:05.922Z,54.27
2023-02-09T11:07:39.408Z,54.80
2023-02-09T11:10:14.274Z,55.47
2023-02-09T11:12:43.524Z,55.46
2023-02-09T11:15:16.208Z,56.48
2023-02-09T11:17:49.310Z,56.85
2023-02-09T11:20:28.924Z,57.27
2023-02-09T11:23:34.164Z,57.46
2023-02-09T11:26:08.984Z,57.62
2023-02-09T11:28:49.866Z,57.43
2023-02-09T11:31:44.478Z,57.29
2023-02-09T11:34:29.823Z,57.92
2023-02-09T11:37:08.193Z,58.04
2023-02-09T11:39:44.505Z,58.18
2023-02-09T11:42:31.923Z,57.87
2023-02-09T11:45:08.621Z,58.00
2023-02-09T11:47:50.723Z,58.70
2023-02-09T11:50:25.468Z,59.00
2023-02-09T11:52:57.554Z,58.44
2023-02-09T11:55:32.775Z,58.61
2023-02-09T11:58:13.202Z,58.73
2023-02-09T12:00:57.829Z,58.23
2023-02-09T12:03:31.525Z,58.98
2023-02-09T12:06:00.308Z,59.62
2023-02-09T12:08:51.478Z,59.52
2023-02-09T12:11:29.076Z,59.45
2023-02-09T12:14:14.490Z,59.34
2023-02-09T12:16:46.851Z,59.51
2023-02-09T12:19:27.096Z,60.03
2023-02-09T12:21:55.047Z,60.23
2023-02-09T12:24:34.913Z,60.66
2023-02-09T12:27:03.409Z,60.62
2023-02-09T12:29:37.873Z,60.63
2023-02-09T12:32:30.713Z,60.45
2023-02-09T12:35:28.742Z,60.20
2023-02-09T12:38:17.048Z,59.94
2023-02-09T12:41:04.345Z,60.70
2023-02-09T12:43:34.024Z,60.48
2023-02-09T12:46:44.231Z,60.88
2023-02-09T12:49:20.911Z,60.74
2023-02-09T12:52:08.122Z,60.80
2023-02-09T12:54:47.351Z,59.88
2023-02-09T12:57:58.116Z,60.17
2023-02-09T13:00:54.942Z,60.08
2023-02-09T13:03:26.127Z,59.68
2023-02-09T13:05:59.978Z,59.69
2023-02-09T13:08:37.674Z,59.88
2023-02-09T13:11:19.495Z,60.28
2023-02-09T13:13:53.435Z,60.03
2023-02-09T13:16:54.746Z,60.38
2023-02-09T13:19:47.805Z,60.17
2023-02-09T13:22:46.241Z,60.14
2023-02-09T13:25:24.781Z,60.64
2023-02-09T13:27:53.034Z,60.49
2023-02-09T13:30:28.845Z,60.79
2023-02-09T13:33:05.009Z,60.94
2023-02-09T13:35:37.448Z,61.42
2023-02-09T13:38:16.805Z,61.54
2023-02-09T13:40:49.306Z,61.56
2023-02-09T13:43:19.534Z,61.56
2023-02-09T13:45:49.410Z,61.10
2023-02-09T13:48:24.624Z,61.23
2023-02-09T13:50:54.267Z,60.97
2023-02-09T13:53:24.794Z,61.22
2023-02-09T13:55:57.228Z,62.06
2023-02-09T13:58:29.141Z,61.44
2023-02-09T14:01:05.005Z,61.60
2023-02-09T14:03:40.879Z,61.58
2023-02-09T14:06:18.032Z,61.87
2023-02-09T14:08:48.614Z,62.53
2023-02-09T14:11:41.022Z,62.62
2023-02-09T14:14:21.649Z,62.08
2023-02-09T14:17:24.759Z,62.45
2023-02-09T14:19:57.441Z,62.51
2023-02-09T14:22:38.594Z,62.72
2023-02-09T14:25:19.962Z,62.93
2023-02-09T14:27:50.168Z,62.75
2023-02-09T14:30:26.760Z,62.72
2023-02-09T14:32:57.716Z,62.93
2023-02-09T14:35:29.361Z,62.69
2023-02-09T14:38:09.654Z,63.47
2023-02-09T14:40:55.644Z,63.26
2023-02-09T14:43:37.395Z,63.38
2023-02-09T14:46:06.243Z,63.83
2023-02-09T14:48:34.704Z,63.91
2023-02-09T14:51:14.097Z,64.57
2023-02-09T14:53:44.406Z,65.05
2023-02-09T14:56:22.562Z,65.57
2023-02-09T14:58:52.059Z,65.90
2023-02-09T15:01:20.128Z,65.80
2023-02-09T15:03:48.356Z,65.82
2023-02-09T15:06:16.867Z,65.85
2023-02-09T15:08:47.003Z,66.25
2023-02-09T15:11:43.132Z,67.11
2023-02-09T15:14:13.282Z,67.02
2023-02-09T15:16:41.288Z,66.95
2023-02-09T15:19:14.043Z,67.22
2023-02-09T15:21:42.135Z,67.69
2023-02-09T15:24:10.300Z,67.03
2023-02-09T15:26:38.971Z,67.72
2023-02-09T15:29:14.306Z,67.57
2023-02-09T15:31:43.716Z,67.81
2023-02-09T15:34:14.631Z,68.33
2023-02-09T15:36:42.854Z,68.33
2023-02-09T15:39:20.002Z,68.38
2023-02-09T15:42:06.259Z,68.31
2023-02-09T15:44:53.114Z,67.78
2023-02-09T15:47:38.777Z,68.70
2023-02-09T15:50:07.312Z,68.68
2023-02-09T15:52:35.887Z,68.66
2023-02-09T15:55:04.262Z,68.45
2023-02-09T15:57:33.162Z,68.14
2023-02-09T16:00:03.055Z,67.87
2023-02-09T16:02:34.196Z,67.84
2023-02-09T16:05:02.291Z,68.10
2023-02-09T16:07:30.979Z,68.45
2023-02-09T16:09:59.393Z,68.70
2023-02-09T16:12:27.534Z,68.88
2023-02-09T16:14:55.646Z,69.36
2023-02-09T16:17:25.107Z,69.34
2023-02-09T16:19:53.054Z,69.37
2023-02-09T16:22:25.118Z,69.64
2023-02-09T16:24:53.322Z,69.00
2023-02-09T16:27:25.212Z,68.84
2023-02-09T16:29:53.538Z,68.79
2023-02-09T16:32:28.598Z,69.27
2023-02-09T16:35:07.352Z,69.46
2023-02-09T16:37:45.463Z,70.10
2023-02-09T16:40:25.586Z,70.04
2023-02-09T16:42:54.338Z,70.05
2023-02-09T16:45:24.907Z,70.35
2023-02-09T16:47:59.172Z,70.17
2023-02-09T16:50:33.077Z,69.98
2023-02-09T16:53:03.096Z,70.17
2023-02-09T16:55:32.853Z,70.48
2023-02-09T16:58:03.736Z,71.19
2023-02-09T17:00:35.747Z,70.89
2023-02-09T17:03:14.181Z,71.03
2023-02-09T17:05:45.086Z,70.37
2023-02-09T17:08:18.950Z,70.82
2023-02-09T17:10:47.776Z,70.82
2023-02-09T17:13:17.530Z,70.99
2023-02-09T17:15:49.112Z,71.22
2023-02-09T17:18:22.961Z,70.96
2023-02-09T17:20:55.592Z,70.78
2023-02-09T17:23:26.260Z,71.19
2023-02-09T17:25:56.011Z,71.70
2023-02-09T17:28:26.201Z,71.86
2023-02-09T17:30:58.565Z,72.14
2023-02-09T17:33:31.061Z,72.05
2023-02-09T17:38:48.437Z,72.26
2023-02-09T17:41:19.174Z,72.47
2023-02-09T17:43:47.992Z,71.98
2023-02-09T17:46:19.477Z,72.55
2023-02-09T17:48:49.785Z,72.83
2023-02-09T17:51:21.856Z,73.53
2023-02-09T17:53:50.133Z,73.55
2023-02-09T17:56:19.477Z,73.55
2023-02-09T17:58:48.316Z,73.78
2023-02-09T18:01:27.075Z,73.96
2023-02-09T18:03:58.530Z,73.97
2023-02-09T18:06:34.317Z,74.10
2023-02-09T18:09:03.373Z,74.44
2023-02-09T18:11:59.749Z,74.41
2023-02-09T18:14:28.882Z,74.54
2023-02-09T18:16:57.402Z,74.72
2023-02-09T18:19:27.240Z,75.02
2023-02-09T18:21:57.103Z,75.05
2023-02-09T18:24:27.769Z,74.90
2023-02-09T18:26:56.176Z,75.08
2023-02-09T18:29:29.062Z,74.94
2023-02-09T18:31:57.629Z,75.22
2023-02-09T18:34:27.598Z,74.90
2023-02-09T18:36:56.348Z,74.24
2023-02-09T18:39:24.750Z,74.62
2023-02-09T18:41:55.115Z,74.42
2023-02-09T18:44:29.059Z,74.53
2023-02-09T18:47:00.309Z,74.65
2023-02-09T18:49:30.202Z,74.97
2023-02-09T18:51:59.336Z,74.59
2023-02-09T18:54:28.877Z,74.67
2023-02-09T18:56:57.195Z,74.64
2023-02-09T18:59:28.988Z,74.85
2023-02-09T19:01:57.381Z,74.68
2023-02-09T19:04:25.714Z,74.75
2023-02-09T19:06:55.985Z,75.07
2023-02-09T19:09:23.966Z,74.76
2023-02-09T19:11:52.124Z,74.55
2023-02-09T19:14:38.420Z,74.47
2023-02-09T19:17:07.282Z,74.38
2023-02-09T19:19:35.303Z,74.53
2023-02-09T19:22:04.690Z,74.74
2023-02-09T19:24:32.937Z,74.94
2023-02-09T19:27:00.966Z,74.91
2023-02-09T19:29:29.755Z,74.93
2023-02-09T19:31:57.834Z,75.18
2023-02-09T19:34:26.221Z,75.76
2023-02-09T19:36:54.715Z,75.77
2023-02-09T19:39:24.033Z,76.01
2023-02-09T19:41:52.233Z,75.89
2023-02-09T19:44:20.449Z,76.25
2023-02-09T19:46:48.675Z,75.74
2023-02-09T19:49:17.109Z,75.61
2023-02-09T19:51:45.371Z,75.46
2023-02-09T19:54:13.404Z,75.24
2023-02-09T19:56:45.309Z,74.89
2023-02-09T19:59:16.954Z,74.61
2023-02-09T20:01:45.225Z,74.43
2023-02-09T20:04:14.675Z,74.07
2023-02-09T20:06:43.927Z,73.98
2023-02-09T20:09:13.478Z,74.02
2023-02-09T20:11:43.193Z,74.35
2023-02-09T20:14:12.707Z,74.21
2023-02-09T20:16:41.738Z,74.36
2023-02-09T20:19:10.923Z,73.76
2023-02-09T20:21:40.282Z,73.86
2023-02-09T20:24:12.424Z,73.90
2023-02-09T20:26:42.362Z,73.83
2023-02-09T20:29:14.351Z,73.92
2023-02-09T20:31:44.091Z,74.02
2023-02-09T20:34:16.134Z,74.40
2023-02-09T20:36:48.279Z,74.50
2023-02-09T20:39:18.908Z,74.61
2023-02-09T20:42:03.599Z,74.87
2023-02-09T20:44:52.495Z,74.69
2023-02-09T20:47:26.122Z,75.08
2023-02-09T20:50:00.368Z,75.02
2023-02-09T20:52:30.797Z,74.70
2023-02-09T20:55:00.907Z,74.74
2023-02-09T20:57:31.842Z,74.87
2023-02-09T21:00:03.312Z,74.84
2023-02-09T21:02:32.350Z,74.82
2023-02-09T21:05:01.989Z,75.03
2023-02-09T21:07:32.314Z,75.14
2023-02-09T21:10:02.821Z,74.63
2023-02-09T21:12:32.941Z,74.49
2023-02-09T21:15:04.859Z,74.89
2023-02-09T21:17:35.242Z,74.59
2023-02-09T21:20:06.919Z,74.48
2023-02-09T21:22:37.051Z,74.75
2023-02-09T21:25:07.250Z,74.25
2023-02-09T21:27:37.652Z,74.04
2023-02-09T21:30:10.183Z,73.93
2023-02-09T21:32:40.025Z,73.92
2023-02-09T21:35:10.778Z,74.18
2023-02-09T21:37:42.987Z,74.29
2023-02-09T21:40:14.616Z,74.58
2023-02-09T21:42:44.529Z,74.16
2023-02-09T21:45:48.479Z,73.72
2023-02-09T21:48:50.255Z,73.39
2023-02-09T21:51:22.555Z,73.67
2023-02-09T21:53:50.662Z,73.64
2023-02-09T21:56:19.754Z,73.54
2023-02-09T21:58:53.293Z,73.14
2023-02-09T22:01:23.673Z,72.86
2023-02-09T22:04:01.855Z,72.93
2023-02-09T22:06:41.822Z,72.92
2023-02-09T22:09:16.184Z,72.86
2023-02-09T22:12:02.440Z,72.03
2023-02-09T22:14:48.697Z,72.34
2023-02-09T22:17:29.375Z,72.11
2023-02-09T22:20:13.634Z,72.15
2023-02-09T22:22:52.320Z,71.86
2023-02-09T22:25:26.980Z,72.06
2023-02-09T22:27:59.534Z,71.96
2023-02-09T22:30:36.224Z,71.83
2023-02-09T22:33:32.783Z,71.85
2023-02-09T22:36:25.837Z,71.61
2023-02-09T22:39:18.437Z,71.08
2023-02-09T22:42:10.012Z,71.28
2023-02-09T22:44:51.190Z,71.10
2023-02-09T22:47:35.436Z,71.43
2023-02-09T22:50:30.511Z,71.71
2023-02-09T22:53:03.650Z,71.72
2023-02-09T22:55:46.532Z,71.95
2023-02-09T22:58:20.927Z,71.89
2023-02-09T23:00:52.285Z,71.97
2023-02-09T23:03:40.827Z,72.12
2023-02-09T23:06:36.202Z,72.52
2023-02-09T23:09:15.761Z,71.73
2023-02-09T23:11:57.595Z,71.69
2023-02-09T23:14:32.884Z,71.94
2023-02-09T23:17:20.397Z,71.92
2023-02-09T23:20:15.473Z,71.39
2023-02-09T23:22:59.279Z,71.03
2023-02-09T23:25:31.509Z,70.64
2023-02-09T23:28:04.894Z,70.77
2023-02-09T23:30:38.881Z,71.09
2023-02-09T23:33:25.797Z,70.85
2023-02-09T23:36:15.656Z,70.82
2023-02-09T23:39:01.653Z,70.72
2023-02-09T23:41:32.009Z,71.01
2023-02-09T23:44:01.456Z,71.59
2023-02-09T23:46:30.208Z,72.12
2023-02-09T23:48:59.056Z,72.01
2023-02-09T23:51:29.837Z,71.80
2023-02-09T23:54:01.098Z,71.73
2023-02-09T23:56:31.805Z,71.36
2023-02-09T23:58:59.889Z,71.35
